createdAt,value
2022-09-22T00:00:57.880Z,1.07
2022-09-22T00:02:20.058Z,0.90
2022-09-22T00:03:43.748Z,1.10
2022-09-22T00:05:06.217Z,1.27
2022-09-22T00:06:31.086Z,1.20
2022-09-22T00:07:54.200Z,1.10
2022-09-22T00:09:18.848Z,1.10
2022-09-22T00:10:40.908Z,1.20
2022-09-22T00:12:02.982Z,1.07
2022-09-22T00:13:25.089Z,0.90
2022-09-22T00:14:47.107Z,1.10
2022-09-22T00:16:10.761Z,0.97
2022-09-22T00:17:32.923Z,1.17
2022-09-22T00:18:55.008Z,1.20
2022-09-22T00:20:17.108Z,0.93
2022-09-22T00:21:39.292Z,1.13
2022-09-22T00:23:01.617Z,0.97
2022-09-22T00:24:25.161Z,1.23
2022-09-22T00:25:47.159Z,0.97
2022-09-22T00:27:09.288Z,1.00
2022-09-22T00:28:32.820Z,1.00
2022-09-22T00:29:55.126Z,0.90
2022-09-22T00:31:20.276Z,0.80
2022-09-22T00:32:42.402Z,0.90
2022-09-22T00:34:05.045Z,0.90
2022-09-22T00:35:27.052Z,1.30
2022-09-22T00:36:49.558Z,1.00
2022-09-22T00:38:11.583Z,0.97
2022-09-22T00:39:33.658Z,1.30
2022-09-22T00:40:55.765Z,1.13
2022-09-22T00:42:18.440Z,1.40
2022-09-22T00:43:42.356Z,1.40
2022-09-22T00:45:05.811Z,1.40
2022-09-22T00:46:30.953Z,1.50
2022-09-22T00:47:53.163Z,1.13
2022-09-22T00:49:15.806Z,1.17
2022-09-22T00:50:39.120Z,1.10
2022-09-22T00:52:01.552Z,0.90
2022-09-22T00:53:25.163Z,0.83
2022-09-22T00:54:48.543Z,1.30
2022-09-22T00:56:16.073Z,1.10
2022-09-22T00:57:39.925Z,1.00
2022-09-22T00:59:16.758Z,1.20
2022-09-22T01:00:38.964Z,1.17
2022-09-22T01:02:01.055Z,1.13
2022-09-22T01:03:29.043Z,0.80
2022-09-22T01:04:52.670Z,1.00
2022-09-22T01:06:19.099Z,0.93
2022-09-22T01:07:42.745Z,1.10
2022-09-22T01:09:05.374Z,1.13
2022-09-22T01:10:27.600Z,1.30
2022-09-22T01:11:49.616Z,1.07
2022-09-22T01:13:24.380Z,1.20
2022-09-22T01:15:11.168Z,1.30
2022-09-22T01:17:04.803Z,1.13
2022-09-22T01:18:26.899Z,1.30
2022-09-22T01:20:36.729Z,2.03
2022-09-22T01:22:13.849Z,1.20
2022-09-22T01:23:44.984Z,1.30
2022-09-22T01:25:39.633Z,1.30
2022-09-22T01:27:31.133Z,1.37
2022-09-22T01:29:30.373Z,1.23
2022-09-22T01:30:56.426Z,1.20
2022-09-22T01:32:32.107Z,1.20
2022-09-22T01:34:05.275Z,1.07
2022-09-22T01:35:34.181Z,1.20
2022-09-22T01:37:25.273Z,1.03
2022-09-22T01:39:14.820Z,1.10
2022-09-22T01:40:48.281Z,1.20
2022-09-22T01:42:17.380Z,1.10
2022-09-22T01:44:00.038Z,1.10
2022-09-22T01:45:26.071Z,1.33
2022-09-22T01:47:00.365Z,1.27
2022-09-22T01:48:32.606Z,1.07
2022-09-22T01:50:01.111Z,1.50
2022-09-22T01:51:31.065Z,1.20
2022-09-22T01:52:58.236Z,1.70
2022-09-22T01:54:42.032Z,1.40
2022-09-22T01:56:07.908Z,1.40
2022-09-22T01:57:51.089Z,1.10
2022-09-22T01:59:16.649Z,1.10
2022-09-22T02:00:41.973Z,1.27
2022-09-22T02:02:10.349Z,1.00
2022-09-22T02:03:44.539Z,1.17
2022-09-22T02:05:12.003Z,1.30
2022-09-22T02:06:48.469Z,1.60
2022-09-22T02:08:16.954Z,1.30
2022-09-22T02:09:42.266Z,1.20
2022-09-22T02:11:13.837Z,1.73
2022-09-22T02:12:36.934Z,1.47
2022-09-22T02:13:59.379Z,1.23
2022-09-22T02:15:40.475Z,1.10
2022-09-22T02:17:02.776Z,1.40
2022-09-22T02:18:33.857Z,1.00
2022-09-22T02:19:56.148Z,1.20
2022-09-22T02:21:20.708Z,1.33
2022-09-22T02:22:42.828Z,0.93
2022-09-22T02:24:05.150Z,1.17
2022-09-22T02:25:27.854Z,1.20
2022-09-22T02:26:50.313Z,1.00
2022-09-22T02:28:16.457Z,1.60
2022-09-22T02:29:44.684Z,1.07
2022-09-22T02:31:25.111Z,1.20
2022-09-22T02:32:49.846Z,1.10
2022-09-22T02:34:12.455Z,1.10
2022-09-22T02:35:39.362Z,1.03
2022-09-22T02:37:18.460Z,1.10
2022-09-22T02:39:11.773Z,1.20
2022-09-22T02:41:18.019Z,1.20
2022-09-22T02:42:49.497Z,1.10
2022-09-22T02:44:23.810Z,1.20
2022-09-22T02:45:53.257Z,1.20
2022-09-22T02:47:27.151Z,1.10
2022-09-22T02:48:56.241Z,0.93
2022-09-22T02:50:22.545Z,1.10
2022-09-22T02:51:48.082Z,1.13
2022-09-22T02:53:15.545Z,1.00
2022-09-22T02:54:37.545Z,1.20
2022-09-22T02:55:59.726Z,1.13
2022-09-22T02:57:21.891Z,1.40
2022-09-22T02:58:43.905Z,1.20
2022-09-22T03:00:06.840Z,1.10
2022-09-22T03:01:28.993Z,1.43
2022-09-22T03:02:50.999Z,1.20
2022-09-22T03:04:13.000Z,1.40
2022-09-22T03:05:35.000Z,1.30
2022-09-22T03:06:56.975Z,2.43
2022-09-22T03:08:19.000Z,1.63
2022-09-22T03:09:40.979Z,1.20
2022-09-22T03:11:02.998Z,1.40
2022-09-22T03:12:25.051Z,1.00
2022-09-22T03:13:47.058Z,1.43
2022-09-22T03:15:11.094Z,1.10
2022-09-22T03:16:33.206Z,1.40
2022-09-22T03:17:55.206Z,1.50
2022-09-22T03:19:17.234Z,1.40
2022-09-22T03:20:39.725Z,1.40
2022-09-22T03:22:01.935Z,1.60
2022-09-22T03:23:23.934Z,1.77
2022-09-22T03:24:45.901Z,1.87
2022-09-22T03:26:07.916Z,1.20
2022-09-22T03:27:30.048Z,1.30
2022-09-22T03:28:53.015Z,1.20
2022-09-22T03:30:15.009Z,1.10
2022-09-22T03:31:37.044Z,1.13
2022-09-22T03:32:59.129Z,1.40
2022-09-22T03:34:21.199Z,1.23
2022-09-22T03:35:43.232Z,2.03
2022-09-22T03:37:05.241Z,1.30
2022-09-22T03:38:27.332Z,1.23
2022-09-22T03:39:49.492Z,1.50
2022-09-22T03:41:11.530Z,2.47
2022-09-22T03:42:35.305Z,1.60
2022-09-22T03:43:57.631Z,1.90
2022-09-22T03:45:19.696Z,1.70
2022-09-22T03:46:41.715Z,1.80
2022-09-22T03:48:03.870Z,1.57
2022-09-22T03:49:26.481Z,1.90
2022-09-22T03:50:48.460Z,2.10
2022-09-22T03:52:10.452Z,1.90
2022-09-22T03:53:32.980Z,2.37
2022-09-22T03:54:54.989Z,1.90
2022-09-22T03:56:17.059Z,2.33
2022-09-22T03:57:39.934Z,1.93
2022-09-22T03:59:02.201Z,1.70
2022-09-22T04:00:24.192Z,1.70
2022-09-22T04:01:46.353Z,2.40
2022-09-22T04:03:08.976Z,2.00
2022-09-22T04:04:31.652Z,1.87
2022-09-22T04:05:53.686Z,2.30
2022-09-22T04:07:15.663Z,2.50
2022-09-22T04:08:37.818Z,2.30
2022-09-22T04:09:59.896Z,3.37
2022-09-22T04:11:23.446Z,2.70
2022-09-22T04:12:45.426Z,2.40
2022-09-22T04:14:07.436Z,2.60
2022-09-22T04:15:29.413Z,2.53
2022-09-22T04:16:51.656Z,2.63
2022-09-22T04:18:15.821Z,3.03
2022-09-22T04:19:37.814Z,2.73
2022-09-22T04:21:01.077Z,2.10
2022-09-22T04:22:23.162Z,2.37
2022-09-22T04:23:45.156Z,2.60
2022-09-22T04:25:08.026Z,2.57
2022-09-22T04:26:30.148Z,2.13
2022-09-22T04:27:52.108Z,2.33
2022-09-22T04:29:14.129Z,2.33
2022-09-22T04:30:36.899Z,2.27
2022-09-22T04:31:58.958Z,2.33
2022-09-22T04:33:21.023Z,3.50
2022-09-22T04:34:43.178Z,3.20
2022-09-22T04:36:05.549Z,3.27
2022-09-22T04:37:27.591Z,2.53
2022-09-22T04:38:49.596Z,2.97
2022-09-22T04:40:12.252Z,3.30
2022-09-22T04:41:34.336Z,2.80
2022-09-22T04:42:57.103Z,2.70
2022-09-22T04:44:19.085Z,2.43
2022-09-22T04:45:47.149Z,2.30
2022-09-22T04:47:09.247Z,2.50
2022-09-22T04:48:31.303Z,2.17
2022-09-22T04:49:53.731Z,2.40
2022-09-22T04:51:15.757Z,2.60
2022-09-22T04:52:37.902Z,2.53
2022-09-22T04:54:00.168Z,2.50
2022-09-22T04:55:23.966Z,3.00
2022-09-22T04:56:45.965Z,2.67
2022-09-22T04:58:09.101Z,2.90
2022-09-22T04:59:31.177Z,2.57
2022-09-22T05:00:55.708Z,3.70
2022-09-22T05:02:17.800Z,2.90
2022-09-22T05:03:39.942Z,3.00
2022-09-22T05:05:02.957Z,3.00
2022-09-22T05:06:25.229Z,2.70
2022-09-22T05:07:50.328Z,2.40
2022-09-22T05:09:12.526Z,2.73
2022-09-22T05:10:36.847Z,3.20
2022-09-22T05:12:01.373Z,2.87
2022-09-22T05:13:23.977Z,2.70
2022-09-22T05:14:46.359Z,2.80
2022-09-22T05:16:08.880Z,3.20
2022-09-22T05:17:31.077Z,3.10
2022-09-22T05:18:53.182Z,3.10
2022-09-22T05:20:15.627Z,2.80
2022-09-22T05:21:37.905Z,2.97
2022-09-22T05:23:00.044Z,4.03
2022-09-22T05:24:22.081Z,2.47
2022-09-22T05:25:44.268Z,3.57
2022-09-22T05:27:07.625Z,3.57
2022-09-22T05:28:29.638Z,2.80
2022-09-22T05:29:52.027Z,3.50
2022-09-22T05:31:14.077Z,3.33
2022-09-22T05:32:36.104Z,3.97
2022-09-22T05:33:58.933Z,3.60
2022-09-22T05:35:23.384Z,3.27
2022-09-22T05:36:45.354Z,3.40
2022-09-22T05:38:07.647Z,3.47
2022-09-22T05:39:29.862Z,3.40
2022-09-22T05:40:51.896Z,2.83
2022-09-22T05:42:13.923Z,3.13
2022-09-22T05:43:35.899Z,3.50
2022-09-22T05:44:58.948Z,3.30
2022-09-22T05:46:21.084Z,3.60
2022-09-22T05:47:43.691Z,2.97
2022-09-22T05:49:05.795Z,3.40
2022-09-22T05:50:27.877Z,3.50
2022-09-22T05:51:52.150Z,3.40
2022-09-22T05:53:14.674Z,3.00
2022-09-22T05:54:36.723Z,4.07
2022-09-22T05:56:00.121Z,3.50
2022-09-22T05:57:25.497Z,3.07
2022-09-22T05:58:47.898Z,3.90
2022-09-22T06:00:10.807Z,3.27
2022-09-22T06:01:32.871Z,4.40
2022-09-22T06:02:55.136Z,3.67
2022-09-22T06:04:17.193Z,3.80
2022-09-22T06:05:39.707Z,3.90
2022-09-22T06:07:01.801Z,3.77
2022-09-22T06:08:23.828Z,3.50
2022-09-22T06:09:46.595Z,3.17
2022-09-22T06:11:08.909Z,3.30
2022-09-22T06:12:30.981Z,3.70
2022-09-22T06:13:53.984Z,3.40
2022-09-22T06:15:16.038Z,2.87
2022-09-22T06:16:38.116Z,3.70
2022-09-22T06:18:00.876Z,3.93
2022-09-22T06:19:26.176Z,3.80
2022-09-22T06:20:48.234Z,3.93
2022-09-22T06:22:11.667Z,4.67
2022-09-22T06:23:33.817Z,3.87
2022-09-22T06:24:55.842Z,4.57
2022-09-22T06:26:17.930Z,4.93
2022-09-22T06:27:40.194Z,4.80
2022-09-22T06:29:02.464Z,4.13
2022-09-22T06:30:24.456Z,3.63
2022-09-22T06:31:46.767Z,4.10
2022-09-22T06:33:10.414Z,4.03
2022-09-22T06:34:33.795Z,3.77
2022-09-22T06:35:58.116Z,3.60
2022-09-22T06:37:20.331Z,3.63
2022-09-22T06:38:42.319Z,3.23
2022-09-22T06:40:08.203Z,3.37
2022-09-22T06:41:32.973Z,2.80
2022-09-22T06:42:59.707Z,3.30
2022-09-22T06:44:22.078Z,3.43
2022-09-22T06:45:44.161Z,3.10
2022-09-22T06:47:08.365Z,2.70
2022-09-22T06:48:31.929Z,2.93
2022-09-22T06:49:54.312Z,2.70
2022-09-22T06:51:17.144Z,2.40
2022-09-22T06:52:39.322Z,3.00
2022-09-22T06:54:06.266Z,2.53
2022-09-22T06:55:29.835Z,3.07
2022-09-22T06:56:51.832Z,2.20
2022-09-22T06:58:16.888Z,2.50
2022-09-22T06:59:40.719Z,2.30
2022-09-22T07:01:09.838Z,2.50
2022-09-22T07:02:32.038Z,2.30
2022-09-22T07:03:54.551Z,2.10
2022-09-22T07:05:19.930Z,1.90
2022-09-22T07:06:42.680Z,1.70
2022-09-22T07:08:05.479Z,1.70
2022-09-22T07:09:27.496Z,1.70
2022-09-22T07:11:02.265Z,1.57
2022-09-22T07:12:25.350Z,2.30
2022-09-22T07:13:47.352Z,1.93
2022-09-22T07:15:09.839Z,1.93
2022-09-22T07:16:31.953Z,2.10
2022-09-22T07:17:54.025Z,1.97
2022-09-22T07:19:16.109Z,2.70
2022-09-22T07:20:38.220Z,2.90
2022-09-22T07:22:01.000Z,2.87
2022-09-22T07:23:23.066Z,2.63
2022-09-22T07:24:45.925Z,2.20
2022-09-22T07:26:12.234Z,2.50
2022-09-22T07:27:35.116Z,2.53
2022-09-22T07:28:59.664Z,2.03
2022-09-22T07:30:22.376Z,1.97
2022-09-22T07:31:44.545Z,2.10
2022-09-22T07:33:06.575Z,1.67
2022-09-22T07:34:28.720Z,1.50
2022-09-22T07:36:07.270Z,1.63
2022-09-22T07:37:33.180Z,1.20
2022-09-22T07:38:57.571Z,1.53
2022-09-22T07:40:19.718Z,1.60
2022-09-22T07:41:43.053Z,1.50
2022-09-22T07:43:05.094Z,1.20
2022-09-22T07:44:45.882Z,1.80
2022-09-22T07:46:09.124Z,1.47
2022-09-22T07:47:49.964Z,2.20
2022-09-22T07:49:11.986Z,2.13
2022-09-22T07:50:34.065Z,2.53
2022-09-22T07:51:57.468Z,1.97
2022-09-22T07:53:19.693Z,1.90
2022-09-22T07:54:41.816Z,2.00
2022-09-22T07:56:06.240Z,1.90
2022-09-22T07:57:31.780Z,1.90
2022-09-22T07:58:55.888Z,2.63
2022-09-22T08:00:18.682Z,1.93
2022-09-22T08:01:48.939Z,1.30
2022-09-22T08:03:11.138Z,1.40
2022-09-22T08:04:33.559Z,1.60
2022-09-22T08:06:06.077Z,1.23
2022-09-22T08:07:31.328Z,1.27
2022-09-22T08:08:59.236Z,1.67
2022-09-22T08:10:21.376Z,1.23
2022-09-22T08:11:45.936Z,1.30
2022-09-22T08:13:09.293Z,1.40
2022-09-22T08:14:31.348Z,1.40
2022-09-22T08:15:57.044Z,1.20
2022-09-22T08:17:19.276Z,1.30
2022-09-22T08:18:41.362Z,1.30
2022-09-22T08:20:04.802Z,1.20
2022-09-22T08:21:32.751Z,1.50
2022-09-22T08:23:02.959Z,1.40
2022-09-22T08:24:25.248Z,1.40
2022-09-22T08:25:47.287Z,1.23
2022-09-22T08:27:09.269Z,1.53
2022-09-22T08:28:31.703Z,1.10
2022-09-22T08:29:53.770Z,1.30
2022-09-22T08:31:17.686Z,1.30
2022-09-22T08:32:39.763Z,1.30
2022-09-22T08:34:04.951Z,0.93
2022-09-22T08:35:27.392Z,1.00
2022-09-22T08:36:49.796Z,0.97
2022-09-22T08:38:13.026Z,0.90
2022-09-22T08:39:36.765Z,1.00
2022-09-22T08:41:12.500Z,2.27
2022-09-22T08:42:34.980Z,1.70
2022-09-22T08:44:11.952Z,1.27
2022-09-22T08:45:38.438Z,1.20
2022-09-22T08:47:01.742Z,0.80
2022-09-22T08:48:45.985Z,0.70
2022-09-22T08:50:44.487Z,0.97
2022-09-22T08:52:31.481Z,0.90
2022-09-22T08:53:53.637Z,0.90
2022-09-22T08:55:25.208Z,0.70
2022-09-22T08:56:57.558Z,0.90
2022-09-22T08:58:32.163Z,0.80
2022-09-22T09:00:14.755Z,1.60
2022-09-22T09:01:52.521Z,0.90
2022-09-22T09:03:38.534Z,0.93
2022-09-22T09:05:30.325Z,1.20
2022-09-22T09:07:03.890Z,0.70
2022-09-22T09:08:27.477Z,0.80
2022-09-22T09:10:35.112Z,0.80
2022-09-22T09:12:38.997Z,1.00
2022-09-22T09:14:27.651Z,0.90
2022-09-22T09:16:13.244Z,0.73
2022-09-22T09:17:38.735Z,0.90
2022-09-22T09:19:06.305Z,0.80
2022-09-22T09:20:35.161Z,0.77
2022-09-22T09:22:02.277Z,0.80
2022-09-22T09:25:38.210Z,0.90
2022-09-22T09:27:08.246Z,0.70
2022-09-22T09:28:36.086Z,0.80
2022-09-22T09:30:17.903Z,0.70
2022-09-22T09:31:53.379Z,0.70
2022-09-22T09:33:40.127Z,0.90
2022-09-22T09:36:31.198Z,0.80
2022-09-22T09:37:58.105Z,1.10
2022-09-22T09:39:22.517Z,0.80
2022-09-22T09:40:54.193Z,0.80
2022-09-22T09:42:27.026Z,1.30
2022-09-22T09:43:56.135Z,0.73
2022-09-22T09:45:25.324Z,0.90
2022-09-22T09:47:06.611Z,0.80
2022-09-22T09:48:52.858Z,0.90
2022-09-22T09:50:15.847Z,0.70
2022-09-22T09:51:42.304Z,0.70
2022-09-22T09:53:07.747Z,0.80
2022-09-22T09:54:30.940Z,0.70
2022-09-22T09:55:53.410Z,0.70
2022-09-22T09:57:17.359Z,0.63
2022-09-22T09:59:17.078Z,0.70
2022-09-22T10:00:57.623Z,0.93
2022-09-22T10:02:25.351Z,0.70
2022-09-22T10:03:54.551Z,0.83
2022-09-22T10:05:16.683Z,0.70
2022-09-22T10:06:38.753Z,0.80
2022-09-22T10:08:03.270Z,0.70
2022-09-22T10:09:29.480Z,0.70
2022-09-22T10:10:58.268Z,0.60
2022-09-22T10:12:29.292Z,0.70
2022-09-22T10:13:56.629Z,0.90
2022-09-22T10:15:25.122Z,0.70
2022-09-22T10:16:53.606Z,0.63
2022-09-22T10:18:24.592Z,0.70
2022-09-22T10:19:46.641Z,0.60
2022-09-22T10:21:19.861Z,0.70
2022-09-22T10:22:42.905Z,0.70
2022-09-22T10:24:23.407Z,0.60
2022-09-22T10:25:45.634Z,0.60
2022-09-22T10:27:20.159Z,0.70
2022-09-22T10:28:42.216Z,0.80
2022-09-22T10:30:24.045Z,0.70
2022-09-22T10:32:12.648Z,0.70
2022-09-22T10:33:34.702Z,0.73
2022-09-22T10:34:59.428Z,0.70
2022-09-22T10:36:25.833Z,0.60
2022-09-22T10:37:48.472Z,0.77
2022-09-22T10:39:17.330Z,0.87
2022-09-22T10:40:43.301Z,0.70
2022-09-22T10:42:12.456Z,0.70
2022-09-22T10:44:00.377Z,0.70
2022-09-22T10:45:45.987Z,0.67
2022-09-22T10:47:08.429Z,0.50
2022-09-22T10:48:42.277Z,0.60
2022-09-22T10:50:28.980Z,0.90
2022-09-22T10:52:02.170Z,0.60
2022-09-22T10:53:27.486Z,0.60
2022-09-22T10:55:11.084Z,0.63
2022-09-22T10:56:53.389Z,0.70
2022-09-22T10:58:25.884Z,0.70
2022-09-22T10:59:57.866Z,0.57
2022-09-22T11:01:38.628Z,0.70
2022-09-22T11:03:06.788Z,0.60
2022-09-22T11:04:52.800Z,0.73
2022-09-22T11:07:02.990Z,0.60
2022-09-22T11:08:44.160Z,0.80
2022-09-22T11:10:41.520Z,0.60
2022-09-22T11:12:19.164Z,0.70
2022-09-22T11:13:54.449Z,0.60
2022-09-22T11:15:26.184Z,0.60
2022-09-22T11:17:10.962Z,0.50
2022-09-22T11:18:57.453Z,0.60
2022-09-22T11:20:39.011Z,0.57
2022-09-22T11:22:10.006Z,0.60
2022-09-22T11:23:53.683Z,0.60
2022-09-22T11:25:47.909Z,0.60
2022-09-22T11:27:24.939Z,0.70
2022-09-22T11:29:13.294Z,0.60
2022-09-22T11:30:52.378Z,0.70
2022-09-22T11:32:41.491Z,0.60
2022-09-22T11:34:09.246Z,0.70
2022-09-22T11:35:40.456Z,0.60
2022-09-22T11:37:27.226Z,0.50
2022-09-22T11:38:58.227Z,0.90
2022-09-22T11:41:08.535Z,0.73
2022-09-22T11:42:39.384Z,0.80
2022-09-22T11:44:19.100Z,0.70
2022-09-22T11:45:49.012Z,3.07
2022-09-22T11:47:30.116Z,1.60
2022-09-22T11:49:24.072Z,0.80
2022-09-22T11:50:59.349Z,0.90
2022-09-22T11:52:43.727Z,0.80
2022-09-22T11:54:22.462Z,0.60
2022-09-22T11:56:03.837Z,0.70
2022-09-22T11:57:31.801Z,0.93
2022-09-22T11:58:57.543Z,0.80
2022-09-22T12:00:21.249Z,0.70
2022-09-22T12:01:44.960Z,0.70
2022-09-22T12:03:14.422Z,0.63
2022-09-22T12:04:42.594Z,0.80
2022-09-22T12:06:08.481Z,0.60
2022-09-22T12:07:37.578Z,0.60
2022-09-22T12:09:14.537Z,0.80
2022-09-22T12:10:42.566Z,0.70
2022-09-22T12:12:07.298Z,0.80
2022-09-22T12:13:31.457Z,0.63
2022-09-22T12:15:09.595Z,0.60
2022-09-22T12:16:51.406Z,0.70
2022-09-22T12:18:33.726Z,0.63
2022-09-22T12:20:08.592Z,0.50
2022-09-22T12:21:37.021Z,0.60
2022-09-22T12:23:27.508Z,0.67
2022-09-22T12:24:49.746Z,0.60
2022-09-22T12:26:15.689Z,0.60
2022-09-22T12:27:37.825Z,0.60
2022-09-22T12:29:14.299Z,0.90
2022-09-22T12:30:36.389Z,0.63
2022-09-22T12:31:59.769Z,0.60
2022-09-22T12:33:22.480Z,0.50
2022-09-22T12:34:44.940Z,0.60
2022-09-22T12:36:07.399Z,0.67
2022-09-22T12:37:35.880Z,0.60
2022-09-22T12:39:18.091Z,0.63
2022-09-22T12:40:42.052Z,0.57
2022-09-22T12:42:34.718Z,0.60
2022-09-22T12:44:08.348Z,0.60
2022-09-22T12:45:41.023Z,0.53
2022-09-22T12:47:07.143Z,0.60
2022-09-22T12:48:35.951Z,0.60
2022-09-22T12:50:00.248Z,0.60
2022-09-22T12:51:25.144Z,0.80
2022-09-22T12:52:47.774Z,0.70
2022-09-22T12:54:27.673Z,0.80
2022-09-22T12:55:50.740Z,0.50
2022-09-22T12:57:22.519Z,0.60
2022-09-22T12:58:44.605Z,0.70
2022-09-22T13:00:14.666Z,0.80
2022-09-22T13:01:36.868Z,0.60
2022-09-22T13:02:59.247Z,0.60
2022-09-22T13:04:21.325Z,0.73
2022-09-22T13:05:46.685Z,0.87
2022-09-22T13:07:38.447Z,0.60
2022-09-22T13:09:00.968Z,0.60
2022-09-22T13:10:26.500Z,0.60
2022-09-22T13:12:11.904Z,0.50
2022-09-22T13:13:48.026Z,0.53
2022-09-22T13:15:17.239Z,0.50
2022-09-22T13:16:39.240Z,0.53
2022-09-22T13:18:01.415Z,0.60
2022-09-22T13:19:23.442Z,0.60
2022-09-22T13:20:45.409Z,0.70
2022-09-22T13:22:19.380Z,0.60
2022-09-22T13:23:59.228Z,0.47
2022-09-22T13:25:24.033Z,0.60
2022-09-22T13:26:46.175Z,0.60
2022-09-22T13:28:08.169Z,0.63
2022-09-22T13:29:31.060Z,0.50
2022-09-22T13:31:04.855Z,0.50
2022-09-22T13:32:28.647Z,0.50
2022-09-22T13:33:50.739Z,0.60
2022-09-22T13:35:26.849Z,0.50
2022-09-22T13:36:50.284Z,0.70
2022-09-22T13:38:15.221Z,0.70
2022-09-22T13:39:44.774Z,0.60
2022-09-22T13:41:23.942Z,0.60
2022-09-22T13:42:46.077Z,0.60
2022-09-22T13:44:11.742Z,0.50
2022-09-22T13:45:34.483Z,0.60
2022-09-22T13:46:59.315Z,0.50
2022-09-22T13:48:21.713Z,0.50
2022-09-22T13:49:51.828Z,0.70
2022-09-22T13:51:15.703Z,0.80
2022-09-22T13:52:39.537Z,0.53
2022-09-22T13:54:04.132Z,0.60
2022-09-22T13:55:33.228Z,0.60
2022-09-22T13:56:57.141Z,0.70
2022-09-22T13:58:28.947Z,0.60
2022-09-22T13:59:52.210Z,0.60
2022-09-22T14:01:20.102Z,0.60
2022-09-22T14:02:44.473Z,0.60
2022-09-22T14:04:22.173Z,0.70
2022-09-22T14:05:53.348Z,0.50
2022-09-22T14:07:16.825Z,0.60
2022-09-22T14:08:39.318Z,0.50
2022-09-22T14:10:02.653Z,0.70
2022-09-22T14:11:28.400Z,0.70
2022-09-22T14:12:51.270Z,0.60
2022-09-22T14:14:27.292Z,0.53
2022-09-22T14:15:49.530Z,0.57
2022-09-22T14:17:21.500Z,0.60
2022-09-22T14:18:47.548Z,0.70
2022-09-22T14:20:10.133Z,0.60
2022-09-22T14:21:33.357Z,0.60
2022-09-22T14:22:55.447Z,0.60
2022-09-22T14:24:18.308Z,0.50
2022-09-22T14:25:40.414Z,0.60
2022-09-22T14:27:07.737Z,0.50
2022-09-22T14:28:34.888Z,0.60
2022-09-22T14:29:58.058Z,0.60
2022-09-22T14:31:27.648Z,0.53
2022-09-22T14:32:57.081Z,0.67
2022-09-22T14:34:26.392Z,0.90
2022-09-22T14:35:52.125Z,0.60
2022-09-22T14:37:22.487Z,0.60
2022-09-22T14:38:51.625Z,0.60
2022-09-22T14:40:26.596Z,0.50
2022-09-22T14:41:58.938Z,0.60
2022-09-22T14:43:42.053Z,0.80
2022-09-22T14:45:10.135Z,0.63
2022-09-22T14:46:41.557Z,0.63
2022-09-22T14:48:13.174Z,0.80
2022-09-22T14:49:39.468Z,0.80
2022-09-22T14:51:20.244Z,0.70
2022-09-22T14:52:56.035Z,0.60
2022-09-22T14:54:18.743Z,0.60
2022-09-22T14:55:48.059Z,0.80
2022-09-22T14:57:14.854Z,1.00
2022-09-22T14:58:41.065Z,0.70
2022-09-22T15:00:22.509Z,0.73
2022-09-22T15:02:07.521Z,0.70
2022-09-22T15:03:30.121Z,0.70
2022-09-22T15:04:53.852Z,0.60
2022-09-22T15:06:15.973Z,1.17
2022-09-22T15:07:45.022Z,1.63
2022-09-22T15:09:15.217Z,0.80
2022-09-22T15:10:37.874Z,0.80
2022-09-22T15:12:02.122Z,0.60
2022-09-22T15:13:47.427Z,0.90
2022-09-22T15:15:27.410Z,0.87
2022-09-22T15:16:49.636Z,0.90
2022-09-22T15:18:19.361Z,0.70
2022-09-22T15:19:41.503Z,0.70
2022-09-22T15:21:13.361Z,0.87
2022-09-22T15:22:36.846Z,0.80
2022-09-22T15:24:00.022Z,0.80
2022-09-22T15:25:23.090Z,1.00
2022-09-22T15:26:46.520Z,0.93
2022-09-22T15:28:13.697Z,0.90
2022-09-22T15:29:35.764Z,0.60
2022-09-22T15:30:58.463Z,0.73
2022-09-22T15:32:20.471Z,0.67
2022-09-22T15:33:42.624Z,0.80
2022-09-22T15:35:05.063Z,0.60
2022-09-22T15:36:30.549Z,0.83
2022-09-22T15:37:55.453Z,1.00
2022-09-22T15:39:23.030Z,0.80
2022-09-22T15:40:46.691Z,0.80
2022-09-22T15:42:11.171Z,0.90
2022-09-22T15:43:33.573Z,0.70
2022-09-22T15:44:56.900Z,0.60
2022-09-22T15:46:29.188Z,0.60
2022-09-22T15:47:55.129Z,0.70
2022-09-22T15:49:22.429Z,0.70
2022-09-22T15:50:44.450Z,0.70
2022-09-22T15:52:06.819Z,0.70
2022-09-22T15:53:30.257Z,0.80
2022-09-22T15:54:53.067Z,0.80
2022-09-22T15:56:20.671Z,0.73
2022-09-22T15:57:44.458Z,0.80
2022-09-22T15:59:08.261Z,0.90
2022-09-22T16:00:30.425Z,1.60
2022-09-22T16:01:54.106Z,1.20
2022-09-22T16:03:24.807Z,1.00
2022-09-22T16:04:47.199Z,0.97
2022-09-22T16:06:14.104Z,1.60
2022-09-22T16:07:38.428Z,1.47
2022-09-22T16:09:00.512Z,1.20
2022-09-22T16:10:24.353Z,1.20
2022-09-22T16:11:46.889Z,0.90
2022-09-22T16:13:09.747Z,1.27
2022-09-22T16:14:31.739Z,0.90
2022-09-22T16:15:54.901Z,0.70
2022-09-22T16:17:17.288Z,0.70
2022-09-22T16:18:41.857Z,0.80
2022-09-22T16:20:05.447Z,0.70
2022-09-22T16:21:27.500Z,0.63
2022-09-22T16:22:50.060Z,0.73
2022-09-22T16:24:12.305Z,0.70
2022-09-22T16:25:34.412Z,0.67
2022-09-22T16:26:56.577Z,0.60
2022-09-22T16:28:18.629Z,0.77
2022-09-22T16:29:40.661Z,0.73
2022-09-22T16:31:04.137Z,0.70
2022-09-22T16:32:26.546Z,0.60
2022-09-22T16:34:58.539Z,0.70
2022-09-22T16:36:21.781Z,0.80
2022-09-22T16:37:43.784Z,0.80
2022-09-22T16:39:05.968Z,0.80
2022-09-22T16:40:29.657Z,0.70
2022-09-22T16:41:51.941Z,0.80
2022-09-22T16:43:14.036Z,0.70
2022-09-22T16:44:36.158Z,0.77
2022-09-22T16:46:17.370Z,0.80
2022-09-22T16:47:39.347Z,0.60
2022-09-22T16:49:08.378Z,0.70
2022-09-22T16:50:30.411Z,0.70
2022-09-22T16:51:55.026Z,0.80
2022-09-22T16:53:17.083Z,0.80
2022-09-22T16:54:39.634Z,0.80
2022-09-22T16:56:02.574Z,1.70
2022-09-22T16:57:24.759Z,2.10
2022-09-22T16:58:47.290Z,2.70
2022-09-22T17:00:12.300Z,3.30
2022-09-22T17:01:37.851Z,2.20
2022-09-22T17:03:00.069Z,3.10
2022-09-22T17:04:22.511Z,1.60
2022-09-22T17:05:46.699Z,1.33
2022-09-22T17:07:08.699Z,2.20
2022-09-22T17:08:31.261Z,2.90
2022-09-22T17:09:53.273Z,2.90
2022-09-22T17:11:15.731Z,3.03
2022-09-22T17:12:38.708Z,2.73
2022-09-22T17:14:29.005Z,2.87
2022-09-22T17:16:08.094Z,2.90
2022-09-22T17:17:32.913Z,3.23
2022-09-22T17:19:05.507Z,2.67
2022-09-22T17:20:27.982Z,2.50
2022-09-22T17:21:52.764Z,1.90
2022-09-22T17:23:14.919Z,1.60
2022-09-22T17:24:37.063Z,1.97
2022-09-22T17:25:59.078Z,2.30
2022-09-22T17:27:23.311Z,2.10
2022-09-22T17:28:46.131Z,1.67
2022-09-22T17:30:09.259Z,2.87
2022-09-22T17:31:31.377Z,2.03
2022-09-22T17:32:53.834Z,3.07
2022-09-22T17:34:16.141Z,2.43
2022-09-22T17:35:38.191Z,2.60
2022-09-22T17:37:01.226Z,2.27
2022-09-22T17:38:24.651Z,2.60
2022-09-22T17:39:47.123Z,3.10
2022-09-22T17:41:10.112Z,3.00
2022-09-22T17:42:32.156Z,2.50
2022-09-22T17:44:02.085Z,2.07
2022-09-22T17:45:24.172Z,2.40
2022-09-22T17:47:04.783Z,1.93
2022-09-22T17:48:45.555Z,1.87
2022-09-22T17:50:30.095Z,1.50
2022-09-22T17:52:10.655Z,1.77
2022-09-22T17:53:51.411Z,1.60
2022-09-22T17:55:21.564Z,2.20
2022-09-22T17:56:43.575Z,2.03
2022-09-22T17:58:05.583Z,2.37
2022-09-22T17:59:29.397Z,2.10
2022-09-22T18:00:51.692Z,2.13
2022-09-22T18:02:15.481Z,1.87
2022-09-22T18:03:37.637Z,1.97
2022-09-22T18:04:59.732Z,1.97
2022-09-22T18:06:21.727Z,1.80
2022-09-22T18:07:43.934Z,2.03
2022-09-22T18:09:07.292Z,2.00
2022-09-22T18:10:34.092Z,1.87
2022-09-22T18:11:56.230Z,2.03
2022-09-22T18:13:18.245Z,2.50
2022-09-22T18:14:41.785Z,2.27
2022-09-22T18:16:29.261Z,1.70
2022-09-22T18:17:51.267Z,2.33
2022-09-22T18:19:13.264Z,2.00
2022-09-22T18:20:35.339Z,1.93
2022-09-22T18:21:57.426Z,2.10
2022-09-22T18:23:19.481Z,1.70
2022-09-22T18:24:41.444Z,6.53
2022-09-22T18:26:04.153Z,3.67
2022-09-22T18:27:29.903Z,2.43
2022-09-22T18:28:53.206Z,2.00
2022-09-22T18:30:17.194Z,2.00
2022-09-22T18:31:39.441Z,1.63
2022-09-22T18:33:01.953Z,1.70
2022-09-22T18:34:24.623Z,1.43
2022-09-22T18:35:47.403Z,1.30
2022-09-22T18:37:11.214Z,2.10
2022-09-22T18:38:33.202Z,1.70
2022-09-22T18:39:55.243Z,2.13
2022-09-22T18:41:19.821Z,1.73
2022-09-22T18:42:44.574Z,1.57
2022-09-22T18:44:07.652Z,1.60
2022-09-22T18:45:29.790Z,1.40
2022-09-22T18:46:52.492Z,1.40
2022-09-22T18:48:18.352Z,1.40
2022-09-22T18:49:40.767Z,1.67
2022-09-22T18:51:05.994Z,1.30
2022-09-22T18:52:28.046Z,1.20
2022-09-22T18:53:54.266Z,1.20
2022-09-22T18:55:18.358Z,1.23
2022-09-22T18:56:41.952Z,1.27
2022-09-22T18:58:03.997Z,1.47
2022-09-22T18:59:27.275Z,2.17
2022-09-22T19:00:51.321Z,1.33
2022-09-22T19:02:14.162Z,1.30
2022-09-22T19:03:36.266Z,1.70
2022-09-22T19:04:58.355Z,1.50
2022-09-22T19:06:20.876Z,1.37
2022-09-22T19:07:46.863Z,1.40
2022-09-22T19:09:08.891Z,1.77
2022-09-22T19:10:31.034Z,1.60
2022-09-22T19:11:54.073Z,1.80
2022-09-22T19:13:16.968Z,1.67
2022-09-22T19:14:40.012Z,2.00
2022-09-22T19:16:04.931Z,1.40
2022-09-22T19:17:27.062Z,1.80
2022-09-22T19:18:49.842Z,1.60
2022-09-22T19:20:18.030Z,1.83
2022-09-22T19:21:40.116Z,2.53
2022-09-22T19:23:06.601Z,2.40
2022-09-22T19:24:28.562Z,2.00